AUA373Z LOWW-LFMN
Flight info
| Callsign | AUA373Z |
|---|---|
| Flight time | 1h 22m |
| Altitude | 34000 |
| Route | OSPEN DCT ABRUK DCT SETAL DCT DETSA/N0457F350 DCT LUSIL DCT EVANO DCT ENOBA Z185 ASBOP/N0393F190 Z185 BORDI |
| Aircraft | A320/M-SDE3FGHIRWY/LB1 |
Departure
| Time | 2026-04-21 19:56 |
|---|---|
| Airport | Vienna International Airport (LOWW) |
Arrival
| Time | 2026-04-21 21:18 |
|---|---|
| Airport | Nice-Côte d'Azur Airport (LFMN) |
| Time | Latitude | Longitude | Altitude | Speed | Heading |
|---|---|---|---|---|---|
| 2026-04-21 19:44 | 48.11933 | 16.56659 | 623 ft | 0 kts | 206° |
| 2026-04-21 19:47 | 48.11950 | 16.56672 | 626 ft | 4 kts | 206° |
| 2026-04-21 19:47 | 48.11974 | 16.56690 | 626 ft | 4 kts | 206° |
| 2026-04-21 19:48 | 48.11998 | 16.56708 | 618 ft | 4 kts | 206° |
| 2026-04-21 19:48 | 48.12021 | 16.56724 | 613 ft | 1 kts | 206° |
| 2026-04-21 19:48 | 48.12007 | 16.56720 | 624 ft | 4 kts | 185° |
| 2026-04-21 19:48 | 48.11987 | 16.56738 | 619 ft | 4 kts | 130° |
| 2026-04-21 19:49 | 48.11981 | 16.56756 | 616 ft | 0 kts | 116° |
| 2026-04-21 19:51 | 48.11973 | 16.56779 | 617 ft | 8 kts | 116° |
| 2026-04-21 19:51 | 48.11936 | 16.56895 | 615 ft | 13 kts | 116° |
| 2026-04-21 19:51 | 48.11899 | 16.57009 | 614 ft | 11 kts | 116° |
| 2026-04-21 19:51 | 48.11880 | 16.57069 | 616 ft | 10 kts | 116° |
| 2026-04-21 19:52 | 48.11858 | 16.57161 | 616 ft | 9 kts | 92° |
| 2026-04-21 19:52 | 48.11846 | 16.57240 | 621 ft | 7 kts | 117° |
| 2026-04-21 19:52 | 48.11824 | 16.57308 | 617 ft | 9 kts | 115° |
| 2026-04-21 19:52 | 48.11781 | 16.57357 | 618 ft | 7 kts | 165° |
| 2026-04-21 19:53 | 48.11729 | 16.57379 | 623 ft | 11 kts | 164° |
| 2026-04-21 19:53 | 48.11627 | 16.57421 | 617 ft | 16 kts | 164° |
| 2026-04-21 19:53 | 48.11529 | 16.57461 | 618 ft | 14 kts | 168° |
| 2026-04-21 19:53 | 48.11445 | 16.57427 | 623 ft | 12 kts | 206° |
| 2026-04-21 19:54 | 48.11366 | 16.57369 | 610 ft | 14 kts | 205° |
| 2026-04-21 19:54 | 48.11276 | 16.57305 | 617 ft | 13 kts | 206° |
| 2026-04-21 19:54 | 48.11198 | 16.57248 | 610 ft | 12 kts | 206° |
| 2026-04-21 19:54 | 48.11103 | 16.57181 | 617 ft | 16 kts | 205° |
| 2026-04-21 19:55 | 48.11074 | 16.57055 | 615 ft | 16 kts | 289° |
| 2026-04-21 19:55 | 48.11171 | 16.56748 | 624 ft | 63 kts | 296° |
| 2026-04-21 19:55 | 48.11460 | 16.55862 | 622 ft | 124 kts | 296° |
| 2026-04-21 19:55 | 48.11906 | 16.54486 | 728 ft | 159 kts | 296° |
| 2026-04-21 19:56 | 48.12147 | 16.52892 | 1422 ft | 163 kts | 263° |
| 2026-04-21 19:56 | 48.11640 | 16.51325 | 1856 ft | 184 kts | 221° |
| 2026-04-21 19:56 | 48.10538 | 16.50133 | 2087 ft | 206 kts | 216° |
| 2026-04-21 19:56 | 48.09297 | 16.48847 | 2359 ft | 226 kts | 216° |
| 2026-04-21 19:57 | 48.08093 | 16.47246 | 2686 ft | 242 kts | 239° |
| 2026-04-21 19:57 | 48.07217 | 16.44969 | 3049 ft | 264 kts | 244° |
| 2026-04-21 19:57 | 48.06315 | 16.42507 | 3728 ft | 273 kts | 243° |
| 2026-04-21 19:57 | 48.05400 | 16.40003 | 4601 ft | 276 kts | 243° |
| 2026-04-21 19:58 | 48.04473 | 16.37471 | 5453 ft | 279 kts | 243° |
| 2026-04-21 19:58 | 48.03534 | 16.34921 | 6271 ft | 282 kts | 243° |
| 2026-04-21 19:58 | 48.02582 | 16.32343 | 7084 ft | 285 kts | 243° |
| 2026-04-21 19:58 | 48.01628 | 16.29774 | 7878 ft | 287 kts | 243° |
| 2026-04-21 19:59 | 48.00653 | 16.27156 | 8687 ft | 289 kts | 243° |
| 2026-04-21 19:59 | 47.99671 | 16.24519 | 9500 ft | 292 kts | 243° |
| 2026-04-21 19:59 | 47.98683 | 16.21861 | 10257 ft | 296 kts | 244° |
| 2026-04-21 19:59 | 47.97648 | 16.19065 | 10479 ft | 319 kts | 243° |
| 2026-04-21 20:00 | 47.96535 | 16.16057 | 10633 ft | 342 kts | 243° |
| 2026-04-21 20:00 | 47.95350 | 16.12851 | 10773 ft | 364 kts | 243° |
| 2026-04-21 20:00 | 47.94091 | 16.09463 | 10899 ft | 383 kts | 243° |
| 2026-04-21 20:00 | 47.92772 | 16.05923 | 11203 ft | 395 kts | 243° |
| 2026-04-21 20:01 | 47.91424 | 16.02326 | 11752 ft | 399 kts | 243° |
| 2026-04-21 20:01 | 47.90064 | 15.98709 | 12385 ft | 401 kts | 243° |
| 2026-04-21 20:01 | 47.88696 | 15.95076 | 13029 ft | 403 kts | 242° |
| 2026-04-21 20:01 | 47.87319 | 15.91424 | 13669 ft | 405 kts | 242° |
| 2026-04-21 20:02 | 47.86403 | 15.88992 | 14074 ft | 407 kts | 242° |
| 2026-04-21 20:02 | 47.84546 | 15.84065 | 14790 ft | 410 kts | 242° |
| 2026-04-21 20:02 | 47.83147 | 15.80353 | 15297 ft | 412 kts | 242° |
| 2026-04-21 20:02 | 47.81741 | 15.76628 | 15760 ft | 414 kts | 242° |
| 2026-04-21 20:03 | 47.80326 | 15.72879 | 16234 ft | 417 kts | 243° |
| 2026-04-21 20:03 | 47.78902 | 15.69115 | 16711 ft | 419 kts | 243° |
| 2026-04-21 20:03 | 47.77471 | 15.65338 | 17181 ft | 420 kts | 243° |
| 2026-04-21 20:03 | 47.76029 | 15.61541 | 17610 ft | 422 kts | 243° |
| 2026-04-21 20:04 | 47.74582 | 15.57735 | 18024 ft | 424 kts | 243° |
| 2026-04-21 20:04 | 47.73147 | 15.53960 | 18448 ft | 426 kts | 242° |
| 2026-04-21 20:04 | 47.71684 | 15.50122 | 18776 ft | 428 kts | 243° |
| 2026-04-21 20:04 | 47.70210 | 15.46259 | 19154 ft | 430 kts | 243° |
| 2026-04-21 20:05 | 47.68727 | 15.42379 | 19468 ft | 432 kts | 243° |
| 2026-04-21 20:05 | 47.67239 | 15.38500 | 19801 ft | 433 kts | 242° |
| 2026-04-21 20:05 | 47.66250 | 15.35928 | 20017 ft | 434 kts | 242° |
| 2026-04-21 20:05 | 47.64750 | 15.32029 | 20340 ft | 436 kts | 242° |
| 2026-04-21 20:06 | 47.63246 | 15.28119 | 20640 ft | 437 kts | 243° |
| 2026-04-21 20:06 | 47.61739 | 15.24198 | 20921 ft | 438 kts | 243° |
| 2026-04-21 20:06 | 47.60228 | 15.20268 | 21243 ft | 439 kts | 243° |
| 2026-04-21 20:06 | 47.58709 | 15.16322 | 21511 ft | 441 kts | 243° |
| 2026-04-21 20:07 | 47.57185 | 15.12378 | 21775 ft | 442 kts | 243° |
| 2026-04-21 20:07 | 47.55654 | 15.08422 | 22045 ft | 443 kts | 243° |
| 2026-04-21 20:07 | 47.54117 | 15.04449 | 22274 ft | 445 kts | 243° |
| 2026-04-21 20:07 | 47.52572 | 15.00470 | 22535 ft | 446 kts | 243° |
| 2026-04-21 20:08 | 47.51019 | 14.96486 | 22770 ft | 448 kts | 243° |
| 2026-04-21 20:08 | 47.49462 | 14.92494 | 22993 ft | 449 kts | 243° |
| 2026-04-21 20:08 | 47.47898 | 14.88485 | 23212 ft | 450 kts | 243° |
| 2026-04-21 20:08 | 47.46347 | 14.84511 | 23397 ft | 451 kts | 243° |
| 2026-04-21 20:09 | 47.44772 | 14.80485 | 23628 ft | 452 kts | 243° |
| 2026-04-21 20:09 | 47.43195 | 14.76469 | 23854 ft | 451 kts | 243° |
| 2026-04-21 20:09 | 47.41615 | 14.72457 | 24104 ft | 450 kts | 243° |
| 2026-04-21 20:09 | 47.40042 | 14.68457 | 24347 ft | 450 kts | 243° |
| 2026-04-21 20:10 | 47.38493 | 14.64519 | 24597 ft | 449 kts | 243° |
| 2026-04-21 20:10 | 47.36923 | 14.60531 | 24868 ft | 448 kts | 243° |
| 2026-04-21 20:10 | 47.35356 | 14.56563 | 25123 ft | 448 kts | 243° |
| 2026-04-21 20:10 | 47.33789 | 14.52601 | 25375 ft | 447 kts | 243° |
| 2026-04-21 20:11 | 47.32215 | 14.48628 | 25635 ft | 447 kts | 243° |
| 2026-04-21 20:11 | 47.30649 | 14.44675 | 25883 ft | 446 kts | 243° |
| 2026-04-21 20:11 | 47.29086 | 14.40733 | 26148 ft | 446 kts | 243° |
| 2026-04-21 20:11 | 47.27519 | 14.36793 | 26445 ft | 445 kts | 243° |
| 2026-04-21 20:12 | 47.25952 | 14.32863 | 26710 ft | 444 kts | 243° |
| 2026-04-21 20:12 | 47.24388 | 14.28940 | 26990 ft | 444 kts | 243° |
| 2026-04-21 20:12 | 47.23045 | 14.24945 | 27250 ft | 440 kts | 251° |
| 2026-04-21 20:12 | 47.22080 | 14.20702 | 27532 ft | 437 kts | 256° |
| 2026-04-21 20:13 | 47.21200 | 14.16421 | 27796 ft | 436 kts | 256° |
| 2026-04-21 20:13 | 47.20320 | 14.12157 | 28097 ft | 436 kts | 256° |
| 2026-04-21 20:13 | 47.19436 | 14.07899 | 28400 ft | 435 kts | 256° |
| 2026-04-21 20:13 | 47.18552 | 14.03657 | 28671 ft | 434 kts | 256° |
| 2026-04-21 20:14 | 47.17663 | 13.99414 | 28966 ft | 434 kts | 256° |
| 2026-04-21 20:14 | 47.16772 | 13.95183 | 29281 ft | 433 kts | 256° |
| 2026-04-21 20:14 | 47.15883 | 13.90961 | 29569 ft | 432 kts | 256° |
| 2026-04-21 20:14 | 47.14997 | 13.86739 | 29882 ft | 431 kts | 256° |
| 2026-04-21 20:15 | 47.14113 | 13.82540 | 30184 ft | 430 kts | 256° |
| 2026-04-21 20:15 | 47.13225 | 13.78345 | 30438 ft | 430 kts | 256° |
| 2026-04-21 20:15 | 47.12335 | 13.74155 | 30665 ft | 430 kts | 256° |
| 2026-04-21 20:15 | 47.11447 | 13.69969 | 30888 ft | 430 kts | 256° |
| 2026-04-21 20:16 | 47.10560 | 13.65785 | 31148 ft | 428 kts | 256° |
| 2026-04-21 20:16 | 47.09674 | 13.61620 | 31409 ft | 427 kts | 256° |
| 2026-04-21 20:16 | 47.08799 | 13.57510 | 31632 ft | 427 kts | 256° |
| 2026-04-21 20:16 | 47.07912 | 13.53357 | 31841 ft | 427 kts | 256° |
| 2026-04-21 20:17 | 47.07019 | 13.49202 | 32086 ft | 427 kts | 256° |
| 2026-04-21 20:17 | 47.06124 | 13.45049 | 32325 ft | 427 kts | 256° |
| 2026-04-21 20:17 | 47.05228 | 13.40895 | 32561 ft | 427 kts | 256° |
| 2026-04-21 20:17 | 47.04332 | 13.36750 | 32810 ft | 426 kts | 256° |
| 2026-04-21 20:18 | 47.03435 | 13.32606 | 33043 ft | 426 kts | 256° |
| 2026-04-21 20:18 | 47.02536 | 13.28464 | 33275 ft | 426 kts | 256° |
| 2026-04-21 20:18 | 47.01639 | 13.24338 | 33570 ft | 424 kts | 257° |
| 2026-04-21 20:18 | 47.00743 | 13.20228 | 33870 ft | 422 kts | 257° |
| 2026-04-21 20:19 | 46.99851 | 13.16133 | 34111 ft | 422 kts | 257° |
| 2026-04-21 20:19 | 46.98058 | 13.07886 | 34147 ft | 428 kts | 257° |
| 2026-04-21 20:20 | 46.96234 | 12.99556 | 34148 ft | 431 kts | 256° |
| 2026-04-21 20:20 | 46.94405 | 12.91265 | 34151 ft | 431 kts | 256° |
| 2026-04-21 20:21 | 46.92553 | 12.82929 | 34138 ft | 431 kts | 256° |
| 2026-04-21 20:21 | 46.90701 | 12.74594 | 34108 ft | 431 kts | 256° |
| 2026-04-21 20:22 | 46.88844 | 12.66243 | 34089 ft | 431 kts | 257° |
| 2026-04-21 20:22 | 46.87003 | 12.58004 | 33202 ft | 425 kts | 256° |
| 2026-04-21 20:22 | 46.86080 | 12.53892 | 33082 ft | 426 kts | 256° |
| 2026-04-21 20:23 | 46.84226 | 12.45651 | 33109 ft | 427 kts | 256° |
| 2026-04-21 20:23 | 46.82360 | 12.37413 | 33107 ft | 427 kts | 256° |
| 2026-04-21 20:24 | 46.80494 | 12.29226 | 33104 ft | 429 kts | 255° |
| 2026-04-21 20:24 | 46.77948 | 12.21270 | 33112 ft | 434 kts | 249° |
| 2026-04-21 20:25 | 46.75271 | 12.13378 | 33092 ft | 434 kts | 249° |
| 2026-04-21 20:25 | 46.72594 | 12.05499 | 33088 ft | 432 kts | 250° |
| 2026-04-21 20:26 | 46.69930 | 11.97653 | 33104 ft | 431 kts | 250° |
| 2026-04-21 20:26 | 46.67264 | 11.89838 | 33088 ft | 430 kts | 249° |
| 2026-04-21 20:27 | 46.64602 | 11.82057 | 33081 ft | 429 kts | 249° |
| 2026-04-21 20:27 | 46.61937 | 11.74285 | 33081 ft | 429 kts | 249° |
| 2026-04-21 20:28 | 46.59266 | 11.66522 | 33075 ft | 429 kts | 249° |
| 2026-04-21 20:28 | 46.56609 | 11.58831 | 33069 ft | 428 kts | 250° |
| 2026-04-21 20:29 | 46.53937 | 11.51108 | 33071 ft | 427 kts | 250° |
| 2026-04-21 20:29 | 46.51269 | 11.43412 | 33064 ft | 426 kts | 250° |
| 2026-04-21 20:30 | 46.48600 | 11.35738 | 33068 ft | 426 kts | 250° |
| 2026-04-21 20:30 | 46.45923 | 11.28078 | 33054 ft | 425 kts | 250° |
| 2026-04-21 20:31 | 46.43355 | 11.20743 | 33058 ft | 425 kts | 250° |
| 2026-04-21 20:31 | 46.40903 | 11.13748 | 33049 ft | 423 kts | 250° |
| 2026-04-21 20:32 | 46.38230 | 11.06168 | 33103 ft | 421 kts | 250° |
| 2026-04-21 20:32 | 46.35564 | 10.98623 | 33094 ft | 420 kts | 250° |
| 2026-04-21 20:33 | 46.32916 | 10.91129 | 33095 ft | 421 kts | 250° |
| 2026-04-21 20:33 | 46.30242 | 10.83605 | 33040 ft | 419 kts | 251° |
| 2026-04-21 20:34 | 46.27573 | 10.76111 | 33063 ft | 419 kts | 251° |
| 2026-04-21 20:34 | 46.24903 | 10.68636 | 33032 ft | 417 kts | 251° |
| 2026-04-21 20:35 | 46.22236 | 10.61202 | 33041 ft | 419 kts | 251° |
| 2026-04-21 20:35 | 46.19551 | 10.53748 | 33033 ft | 418 kts | 251° |
| 2026-04-21 20:36 | 46.16865 | 10.46280 | 33046 ft | 419 kts | 251° |
| 2026-04-21 20:36 | 46.14173 | 10.38824 | 33028 ft | 419 kts | 251° |
| 2026-04-21 20:37 | 46.11482 | 10.31379 | 33038 ft | 418 kts | 251° |
| 2026-04-21 20:37 | 46.08791 | 10.23975 | 33010 ft | 416 kts | 251° |
| 2026-04-21 20:38 | 46.06104 | 10.16587 | 33038 ft | 417 kts | 251° |
| 2026-04-21 20:38 | 46.03148 | 10.09356 | 33049 ft | 427 kts | 243° |
| 2026-04-21 20:39 | 45.99642 | 10.02477 | 33046 ft | 426 kts | 243° |
| 2026-04-21 20:39 | 45.96142 | 9.95652 | 33060 ft | 427 kts | 243° |
| 2026-04-21 20:40 | 45.92625 | 9.88787 | 33004 ft | 425 kts | 243° |
| 2026-04-21 20:40 | 45.89115 | 9.81928 | 33016 ft | 426 kts | 243° |
| 2026-04-21 20:41 | 45.85599 | 9.75077 | 33026 ft | 427 kts | 243° |
| 2026-04-21 20:41 | 45.82068 | 9.68234 | 33040 ft | 427 kts | 243° |
| 2026-04-21 20:42 | 45.78534 | 9.61384 | 33030 ft | 427 kts | 243° |
| 2026-04-21 20:42 | 45.74998 | 9.54544 | 33001 ft | 427 kts | 242° |
| 2026-04-21 20:43 | 45.71473 | 9.47758 | 33009 ft | 428 kts | 242° |
| 2026-04-21 20:43 | 45.67917 | 9.40927 | 32988 ft | 428 kts | 242° |
| 2026-04-21 20:44 | 45.64356 | 9.34104 | 32998 ft | 428 kts | 242° |
| 2026-04-21 20:44 | 45.60785 | 9.27280 | 33008 ft | 429 kts | 242° |
| 2026-04-21 20:45 | 45.57215 | 9.20461 | 33005 ft | 429 kts | 242° |
| 2026-04-21 20:45 | 45.53634 | 9.13637 | 33018 ft | 430 kts | 242° |
| 2026-04-21 20:46 | 45.50039 | 9.06810 | 33021 ft | 430 kts | 242° |
| 2026-04-21 20:46 | 45.46437 | 9.00000 | 33014 ft | 430 kts | 242° |
| 2026-04-21 20:47 | 45.42862 | 8.93238 | 32986 ft | 430 kts | 242° |
| 2026-04-21 20:47 | 45.39261 | 8.86444 | 32986 ft | 430 kts | 242° |
| 2026-04-21 20:48 | 45.35514 | 8.79776 | 33001 ft | 439 kts | 234° |
| 2026-04-21 20:48 | 45.33140 | 8.76948 | 33000 ft | 453 kts | 224° |
| 2026-04-21 20:48 | 45.30355 | 8.74716 | 32996 ft | 467 kts | 213° |
| 2026-04-21 20:49 | 45.24122 | 8.71778 | 32921 ft | 476 kts | 206° |
| 2026-04-21 20:49 | 45.17738 | 8.68961 | 32957 ft | 478 kts | 206° |
| 2026-04-21 20:50 | 45.11433 | 8.66171 | 32966 ft | 478 kts | 207° |
| 2026-04-21 20:50 | 45.05081 | 8.63347 | 32941 ft | 478 kts | 206° |
| 2026-04-21 20:51 | 44.98730 | 8.60539 | 32953 ft | 478 kts | 206° |
| 2026-04-21 20:51 | 44.92380 | 8.57753 | 32922 ft | 477 kts | 206° |
| 2026-04-21 20:52 | 44.89211 | 8.56362 | 32450 ft | 475 kts | 206° |
| 2026-04-21 20:52 | 44.86075 | 8.54989 | 31884 ft | 468 kts | 206° |
| 2026-04-21 20:52 | 44.82992 | 8.53642 | 31373 ft | 461 kts | 206° |
| 2026-04-21 20:52 | 44.79948 | 8.52319 | 30892 ft | 454 kts | 206° |
| 2026-04-21 20:53 | 44.76952 | 8.51016 | 30445 ft | 447 kts | 206° |
| 2026-04-21 20:53 | 44.73994 | 8.49726 | 29997 ft | 442 kts | 206° |
| 2026-04-21 20:53 | 44.71073 | 8.48452 | 29482 ft | 437 kts | 206° |
| 2026-04-21 20:53 | 44.68178 | 8.47190 | 28966 ft | 433 kts | 206° |
| 2026-04-21 20:54 | 44.65311 | 8.45941 | 28461 ft | 429 kts | 206° |
| 2026-04-21 20:54 | 44.62468 | 8.44705 | 27968 ft | 425 kts | 206° |
| 2026-04-21 20:54 | 44.59650 | 8.43479 | 27489 ft | 422 kts | 206° |
| 2026-04-21 20:54 | 44.56860 | 8.42260 | 27017 ft | 419 kts | 206° |
| 2026-04-21 20:55 | 44.55017 | 8.41455 | 26708 ft | 417 kts | 206° |
| 2026-04-21 20:55 | 44.51367 | 8.39867 | 26103 ft | 413 kts | 206° |
| 2026-04-21 20:55 | 44.48630 | 8.38685 | 25654 ft | 410 kts | 205° |
| 2026-04-21 20:55 | 44.45911 | 8.37516 | 25212 ft | 407 kts | 205° |
| 2026-04-21 20:56 | 44.43218 | 8.36358 | 24781 ft | 404 kts | 205° |
| 2026-04-21 20:56 | 44.41438 | 8.35592 | 24486 ft | 402 kts | 205° |
| 2026-04-21 20:56 | 44.38774 | 8.34441 | 24069 ft | 400 kts | 205° |
| 2026-04-21 20:56 | 44.36128 | 8.33298 | 23626 ft | 397 kts | 205° |
| 2026-04-21 20:57 | 44.33533 | 8.32052 | 23148 ft | 389 kts | 211° |
| 2026-04-21 20:57 | 44.31189 | 8.30306 | 22635 ft | 377 kts | 221° |
| 2026-04-21 20:57 | 44.29148 | 8.28085 | 22153 ft | 366 kts | 231° |
| 2026-04-21 20:57 | 44.27451 | 8.25496 | 21677 ft | 357 kts | 239° |
| 2026-04-21 20:58 | 44.26034 | 8.22681 | 21209 ft | 354 kts | 242° |
| 2026-04-21 20:58 | 44.24638 | 8.19856 | 20754 ft | 351 kts | 242° |
| 2026-04-21 20:58 | 44.23248 | 8.17061 | 20309 ft | 350 kts | 242° |
| 2026-04-21 20:58 | 44.21865 | 8.14284 | 19863 ft | 348 kts | 242° |
| 2026-04-21 20:59 | 44.20488 | 8.11521 | 19426 ft | 346 kts | 242° |
| 2026-04-21 20:59 | 44.19119 | 8.08774 | 18992 ft | 344 kts | 241° |
| 2026-04-21 20:59 | 44.17759 | 8.06051 | 18564 ft | 341 kts | 242° |
| 2026-04-21 20:59 | 44.16407 | 8.03359 | 18123 ft | 339 kts | 240° |
| 2026-04-21 21:00 | 44.14759 | 8.00973 | 17645 ft | 347 kts | 225° |
| 2026-04-21 21:00 | 44.12875 | 7.98861 | 17140 ft | 346 kts | 225° |
| 2026-04-21 21:00 | 44.10998 | 7.96781 | 16663 ft | 344 kts | 225° |
| 2026-04-21 21:00 | 44.09126 | 7.94721 | 16194 ft | 342 kts | 225° |
| 2026-04-21 21:01 | 44.07258 | 7.92670 | 15748 ft | 342 kts | 225° |
| 2026-04-21 21:01 | 44.05390 | 7.90619 | 15290 ft | 341 kts | 225° |
| 2026-04-21 21:01 | 44.03530 | 7.88581 | 14860 ft | 340 kts | 224° |
| 2026-04-21 21:01 | 44.01686 | 7.86561 | 14418 ft | 336 kts | 225° |
| 2026-04-21 21:02 | 43.99862 | 7.84566 | 13982 ft | 329 kts | 224° |
| 2026-04-21 21:02 | 43.98093 | 7.82640 | 13521 ft | 317 kts | 224° |
| 2026-04-21 21:02 | 43.96453 | 7.80852 | 13066 ft | 306 kts | 225° |
| 2026-04-21 21:02 | 43.94809 | 7.79055 | 12587 ft | 297 kts | 224° |
| 2026-04-21 21:03 | 43.93211 | 7.77304 | 12138 ft | 297 kts | 224° |
| 2026-04-21 21:03 | 43.91565 | 7.75494 | 11675 ft | 299 kts | 224° |
| 2026-04-21 21:03 | 43.89950 | 7.73724 | 11238 ft | 301 kts | 224° |
| 2026-04-21 21:03 | 43.88310 | 7.71935 | 10969 ft | 297 kts | 223° |
| 2026-04-21 21:04 | 43.86705 | 7.70194 | 10958 ft | 291 kts | 223° |
| 2026-04-21 21:04 | 43.85118 | 7.68467 | 10965 ft | 290 kts | 224° |
| 2026-04-21 21:04 | 43.83532 | 7.66738 | 10969 ft | 292 kts | 219° |
| 2026-04-21 21:04 | 43.81914 | 7.64976 | 10964 ft | 296 kts | 221° |
| 2026-04-21 21:05 | 43.80311 | 7.63238 | 10943 ft | 291 kts | 222° |
| 2026-04-21 21:05 | 43.78724 | 7.61514 | 10943 ft | 290 kts | 222° |
| 2026-04-21 21:05 | 43.77141 | 7.59793 | 10939 ft | 289 kts | 223° |
| 2026-04-21 21:05 | 43.75557 | 7.58072 | 10931 ft | 290 kts | 223° |
| 2026-04-21 21:06 | 43.73970 | 7.56349 | 10939 ft | 291 kts | 223° |
| 2026-04-21 21:06 | 43.72427 | 7.54622 | 10866 ft | 275 kts | 227° |
| 2026-04-21 21:06 | 43.71279 | 7.52668 | 10614 ft | 252 kts | 246° |
| 2026-04-21 21:06 | 43.70531 | 7.50565 | 10384 ft | 237 kts | 250° |
| 2026-04-21 21:07 | 43.69865 | 7.48537 | 10008 ft | 231 kts | 250° |
| 2026-04-21 21:07 | 43.69205 | 7.46490 | 9389 ft | 234 kts | 250° |
| 2026-04-21 21:07 | 43.68557 | 7.44441 | 8773 ft | 237 kts | 250° |
| 2026-04-21 21:07 | 43.67903 | 7.42340 | 8164 ft | 239 kts | 251° |
| 2026-04-21 21:08 | 43.67367 | 7.40177 | 7565 ft | 239 kts | 250° |
| 2026-04-21 21:08 | 43.66372 | 7.38328 | 7010 ft | 246 kts | 219° |
| 2026-04-21 21:08 | 43.64795 | 7.37441 | 6524 ft | 250 kts | 188° |
| 2026-04-21 21:08 | 43.63084 | 7.37788 | 6058 ft | 252 kts | 156° |
| 2026-04-21 21:09 | 43.61743 | 7.39279 | 5673 ft | 248 kts | 124° |
| 2026-04-21 21:09 | 43.61158 | 7.41445 | 5295 ft | 240 kts | 92° |
| 2026-04-21 21:09 | 43.61474 | 7.43634 | 4923 ft | 230 kts | 59° |
| 2026-04-21 21:09 | 43.62553 | 7.45161 | 4538 ft | 221 kts | 25° |
| 2026-04-21 21:10 | 43.64005 | 7.45559 | 4200 ft | 210 kts | 351° |
| 2026-04-21 21:10 | 43.65285 | 7.44754 | 3817 ft | 201 kts | 315° |
| 2026-04-21 21:10 | 43.66181 | 7.43299 | 3435 ft | 196 kts | 305° |
| 2026-04-21 21:10 | 43.66842 | 7.41669 | 3051 ft | 193 kts | 295° |
| 2026-04-21 21:11 | 43.67370 | 7.39990 | 2683 ft | 195 kts | 287° |
| 2026-04-21 21:11 | 43.67753 | 7.38182 | 2308 ft | 197 kts | 284° |
| 2026-04-21 21:11 | 43.68102 | 7.36341 | 1978 ft | 198 kts | 281° |
| 2026-04-21 21:11 | 43.68052 | 7.34511 | 1717 ft | 189 kts | 248° |
| 2026-04-21 21:12 | 43.67370 | 7.33029 | 1531 ft | 178 kts | 228° |
| 2026-04-21 21:12 | 43.66571 | 7.31783 | 1510 ft | 171 kts | 225° |
| 2026-04-21 21:12 | 43.65769 | 7.30590 | 1506 ft | 168 kts | 225° |
| 2026-04-21 21:12 | 43.64934 | 7.29466 | 1511 ft | 167 kts | 222° |
| 2026-04-21 21:13 | 43.64116 | 7.28320 | 1512 ft | 167 kts | 225° |
| 2026-04-21 21:13 | 43.63330 | 7.27139 | 1511 ft | 167 kts | 225° |
| 2026-04-21 21:13 | 43.62555 | 7.25960 | 1512 ft | 168 kts | 225° |
| 2026-04-21 21:13 | 43.61767 | 7.24776 | 1505 ft | 167 kts | 225° |
| 2026-04-21 21:14 | 43.60972 | 7.23593 | 1507 ft | 168 kts | 225° |
| 2026-04-21 21:14 | 43.60177 | 7.22410 | 1493 ft | 168 kts | 225° |
| 2026-04-21 21:14 | 43.59392 | 7.21234 | 1493 ft | 161 kts | 226° |
| 2026-04-21 21:14 | 43.58731 | 7.20009 | 1368 ft | 155 kts | 242° |
| 2026-04-21 21:15 | 43.58428 | 7.18610 | 1279 ft | 153 kts | 265° |
| 2026-04-21 21:15 | 43.58557 | 7.17175 | 1158 ft | 151 kts | 290° |
| 2026-04-21 21:15 | 43.59126 | 7.15981 | 1019 ft | 149 kts | 314° |
| 2026-04-21 21:15 | 43.59943 | 7.15141 | 838 ft | 145 kts | 340° |
| 2026-04-21 21:16 | 43.60928 | 7.14990 | 680 ft | 144 kts | 12° |
| 2026-04-21 21:16 | 43.61826 | 7.15562 | 576 ft | 144 kts | 45° |
| 2026-04-21 21:16 | 43.62471 | 7.16615 | 521 ft | 144 kts | 50° |
| 2026-04-21 21:16 | 43.63171 | 7.17613 | 404 ft | 145 kts | 47° |
| 2026-04-21 21:17 | 43.63868 | 7.18589 | 332 ft | 141 kts | 46° |
| 2026-04-21 21:17 | 43.64561 | 7.19547 | 238 ft | 142 kts | 47° |
| 2026-04-21 21:17 | 43.65265 | 7.20517 | 62 ft | 144 kts | 47° |
| 2026-04-21 21:17 | 43.65926 | 7.21433 | 20 ft | 116 kts | 45° |
| 2026-04-21 21:18 | 43.66288 | 7.21926 | 22 ft | 33 kts | 43° |
| 2026-04-21 21:18 | 43.66417 | 7.22016 | 21 ft | 20 kts | 20° |
| 2026-04-21 21:18 | 43.66517 | 7.22053 | 21 ft | 9 kts | 355° |
| 2026-04-21 21:18 | 43.66559 | 7.22013 | 21 ft | 7 kts | 289° |
| 2026-04-21 21:19 | 43.66547 | 7.21962 | 21 ft | 5 kts | 232° |
| 2026-04-21 21:19 | 43.66526 | 7.21929 | 21 ft | 4 kts | 229° |
| 2026-04-21 21:19 | 43.66510 | 7.21904 | 21 ft | 3 kts | 225° |
| 2026-04-21 21:19 | 43.66482 | 7.21868 | 21 ft | 9 kts | 223° |
| 2026-04-21 21:20 | 43.66421 | 7.21789 | 21 ft | 15 kts | 224° |
| 2026-04-21 21:20 | 43.66349 | 7.21689 | 21 ft | 13 kts | 225° |
| 2026-04-21 21:20 | 43.66341 | 7.21580 | 22 ft | 14 kts | 313° |
| 2026-04-21 21:20 | 43.66372 | 7.21486 | 21 ft | 10 kts | 261° |
| 2026-04-21 21:21 | 43.66353 | 7.21416 | 21 ft | 7 kts | 256° |
| 2026-04-21 21:21 | 43.66348 | 7.21372 | 21 ft | 2 kts | 259° |
| 2026-04-21 21:21 | 43.66348 | 7.21356 | 21 ft | 2 kts | 284° |
| 2026-04-21 21:21 | 43.66368 | 7.21342 | 22 ft | 5 kts | 342° |
| 2026-04-21 21:22 | 43.66400 | 7.21333 | 21 ft | 4 kts | 350° |
| 2026-04-21 21:22 | 43.66423 | 7.21328 | 21 ft | 0 kts | 350° |